createdAt,value
2018-07-24T00:00:21.224Z,0.00
2018-07-24T00:01:21.468Z,0.00
2018-07-24T00:02:21.710Z,0.00
2018-07-24T00:03:21.959Z,0.00
2018-07-24T00:04:22.202Z,0.00
2018-07-24T00:05:22.445Z,0.00
2018-07-24T00:06:22.689Z,0.00
2018-07-24T00:07:22.934Z,0.00
2018-07-24T00:08:23.176Z,0.00
2018-07-24T00:09:23.420Z,0.00
2018-07-24T00:10:23.664Z,0.00
2018-07-24T00:11:23.905Z,0.00
2018-07-24T00:12:24.148Z,0.00
2018-07-24T00:13:24.396Z,0.00
2018-07-24T00:14:24.637Z,0.00
2018-07-24T00:15:24.878Z,0.00
2018-07-24T00:16:25.119Z,0.00
2018-07-24T00:17:25.365Z,0.00
2018-07-24T00:18:25.606Z,0.00
2018-07-24T00:19:25.847Z,0.00
2018-07-24T00:20:26.087Z,0.00
2018-07-24T00:21:26.334Z,0.00
2018-07-24T00:22:26.572Z,0.00
2018-07-24T00:23:26.816Z,0.00
2018-07-24T00:24:27.059Z,0.00
2018-07-24T00:25:27.301Z,0.00
2018-07-24T00:26:27.543Z,0.00
2018-07-24T00:27:27.783Z,0.00
2018-07-24T00:28:28.025Z,0.00
2018-07-24T00:29:28.265Z,0.00
2018-07-24T00:30:28.508Z,0.00
2018-07-24T00:31:28.754Z,0.00
2018-07-24T00:32:28.993Z,0.00
2018-07-24T00:33:29.235Z,0.00
2018-07-24T00:34:29.475Z,0.00
2018-07-24T00:35:29.719Z,0.00
2018-07-24T00:36:29.959Z,0.00
2018-07-24T00:37:30.204Z,0.00
2018-07-24T00:38:30.446Z,0.00
2018-07-24T00:39:30.689Z,0.00
2018-07-24T00:40:30.933Z,0.00
2018-07-24T00:41:31.174Z,0.00
2018-07-24T00:42:31.417Z,0.00
2018-07-24T00:43:31.662Z,0.00
2018-07-24T00:44:31.902Z,0.00
2018-07-24T00:45:32.145Z,0.00
2018-07-24T00:46:32.388Z,0.00
2018-07-24T00:47:32.638Z,0.00
2018-07-24T00:48:32.871Z,0.00
2018-07-24T00:49:33.116Z,0.00
2018-07-24T00:50:33.359Z,0.00
2018-07-24T00:51:33.600Z,0.00
2018-07-24T00:52:33.843Z,0.00
2018-07-24T00:53:34.086Z,0.00
2018-07-24T00:54:34.328Z,0.00
2018-07-24T00:55:34.574Z,0.00
2018-07-24T00:56:34.813Z,0.00
2018-07-24T00:57:35.055Z,0.00
2018-07-24T00:58:35.293Z,0.00
2018-07-24T00:59:35.541Z,0.00
2018-07-24T01:00:35.782Z,0.00
2018-07-24T01:01:36.024Z,0.00
2018-07-24T01:02:36.267Z,0.00
2018-07-24T01:03:36.512Z,0.00
2018-07-24T01:04:36.757Z,0.00
2018-07-24T01:05:36.995Z,0.00
2018-07-24T01:06:37.239Z,0.00
2018-07-24T01:07:37.481Z,0.00
2018-07-24T01:08:37.753Z,0.00
2018-07-24T01:09:37.966Z,0.00
2018-07-24T01:10:38.209Z,0.00
2018-07-24T01:11:38.452Z,0.00
2018-07-24T01:12:38.696Z,0.00
2018-07-24T01:13:38.937Z,0.00
2018-07-24T01:14:39.181Z,0.00
2018-07-24T01:15:39.423Z,0.00
2018-07-24T01:16:39.667Z,0.00
2018-07-24T01:17:39.909Z,0.00
2018-07-24T01:18:40.150Z,0.00
2018-07-24T01:19:40.395Z,0.00
2018-07-24T01:20:40.637Z,0.00
2018-07-24T01:21:40.877Z,0.00
2018-07-24T01:22:41.118Z,0.00
2018-07-24T01:23:41.367Z,0.00
2018-07-24T01:24:41.607Z,0.00
2018-07-24T01:25:41.835Z,0.00
2018-07-24T01:26:42.070Z,0.00
2018-07-24T01:27:42.323Z,0.00
2018-07-24T01:28:42.565Z,0.00
2018-07-24T01:29:42.809Z,0.00
2018-07-24T01:30:43.051Z,0.00
2018-07-24T01:31:43.289Z,0.00
2018-07-24T01:32:43.536Z,0.00
2018-07-24T01:33:43.777Z,0.00
2018-07-24T01:34:44.021Z,0.00
2018-07-24T01:35:44.261Z,0.00
2018-07-24T01:36:44.504Z,0.00
2018-07-24T01:37:44.750Z,0.00
2018-07-24T01:38:44.991Z,0.00
2018-07-24T01:39:45.234Z,0.00
2018-07-24T01:40:45.478Z,0.00
2018-07-24T01:41:45.722Z,0.00
2018-07-24T01:42:45.964Z,0.00
2018-07-24T01:43:46.207Z,0.00
2018-07-24T01:44:46.449Z,0.00
2018-07-24T01:45:46.692Z,0.00
2018-07-24T01:46:46.933Z,0.00
2018-07-24T01:47:47.180Z,0.00
2018-07-24T01:48:47.422Z,0.00
2018-07-24T01:49:47.665Z,0.00
2018-07-24T01:50:47.907Z,0.00
2018-07-24T01:51:48.152Z,0.00
2018-07-24T01:52:48.396Z,0.00
2018-07-24T01:53:48.638Z,0.00
2018-07-24T01:54:48.879Z,0.00
2018-07-24T01:55:49.122Z,0.00
2018-07-24T01:56:49.365Z,0.00
2018-07-24T01:57:49.606Z,0.00
2018-07-24T01:58:49.850Z,0.00
2018-07-24T01:59:50.093Z,0.00
2018-07-24T02:00:50.336Z,0.00
2018-07-24T02:01:50.580Z,0.00
2018-07-24T02:02:50.821Z,0.00
2018-07-24T02:03:51.063Z,0.00
2018-07-24T02:04:51.304Z,0.00
2018-07-24T02:05:51.548Z,0.00
2018-07-24T02:06:51.791Z,0.00
2018-07-24T02:07:52.033Z,0.00
2018-07-24T02:08:52.276Z,0.00
2018-07-24T02:09:52.519Z,0.00
2018-07-24T02:10:52.763Z,0.00
2018-07-24T02:11:53.002Z,0.00
2018-07-24T02:12:53.243Z,0.00
2018-07-24T02:13:53.485Z,0.00
2018-07-24T02:14:53.727Z,0.00
2018-07-24T02:15:53.971Z,0.00
2018-07-24T02:16:54.211Z,0.00
2018-07-24T02:17:54.451Z,0.00
2018-07-24T02:18:54.693Z,0.00
2018-07-24T02:19:54.934Z,0.00
2018-07-24T02:20:55.175Z,0.00
2018-07-24T02:21:55.417Z,0.00
2018-07-24T02:22:55.659Z,0.00
2018-07-24T02:23:55.901Z,0.00
2018-07-24T02:24:56.144Z,0.00
2018-07-24T02:25:56.385Z,0.00
2018-07-24T02:26:56.626Z,0.00
2018-07-24T02:27:56.868Z,0.00
2018-07-24T02:28:57.107Z,0.00
2018-07-24T02:29:57.350Z,0.00
2018-07-24T02:30:57.591Z,0.00
2018-07-24T02:31:57.863Z,0.00
2018-07-24T02:32:58.076Z,0.00
2018-07-24T02:33:58.317Z,0.00
2018-07-24T02:34:58.558Z,0.00
2018-07-24T02:35:59.198Z,0.00
2018-07-24T02:39:54.842Z,0.00
2018-07-24T02:40:01.127Z,0.00
2018-07-24T02:41:00.344Z,0.00
2018-07-24T02:42:00.586Z,0.00
2018-07-24T02:43:00.827Z,0.00
2018-07-24T02:44:01.068Z,0.00
2018-07-24T02:45:01.309Z,0.00
2018-07-24T02:46:01.557Z,0.00
2018-07-24T02:47:01.796Z,0.00
2018-07-24T02:48:02.030Z,0.00
2018-07-24T02:49:02.272Z,0.00
2018-07-24T02:50:02.512Z,0.00
2018-07-24T02:51:02.763Z,0.00
2018-07-24T02:52:02.997Z,0.00
2018-07-24T02:53:03.237Z,0.00
2018-07-24T02:54:03.478Z,0.00
2018-07-24T02:55:03.718Z,4.00
2018-07-24T02:56:03.961Z,4.00
2018-07-24T02:57:04.202Z,0.00
2018-07-24T02:58:04.442Z,4.00
2018-07-24T02:59:04.684Z,4.00
2018-07-24T03:00:04.925Z,0.00
2018-07-24T03:01:05.171Z,4.00
2018-07-24T03:02:05.409Z,8.00
2018-07-24T03:03:05.650Z,4.00
2018-07-24T03:04:05.893Z,4.00
2018-07-24T03:05:06.135Z,8.00
2018-07-24T03:06:06.377Z,12.00
2018-07-24T03:07:06.619Z,12.00
2018-07-24T03:08:06.859Z,12.00
2018-07-24T03:09:07.103Z,12.00
2018-07-24T03:10:07.351Z,16.00
2018-07-24T03:11:07.588Z,20.00
2018-07-24T03:12:07.836Z,24.00
2018-07-24T03:13:08.076Z,28.00
2018-07-24T03:14:08.319Z,28.00
2018-07-24T03:15:08.565Z,32.00
2018-07-24T03:16:08.830Z,36.00
2018-07-24T03:17:09.047Z,44.00
2018-07-24T03:18:09.289Z,52.00
2018-07-24T03:19:09.532Z,60.00
2018-07-24T03:20:09.774Z,68.00
2018-07-24T03:21:10.023Z,76.00
2018-07-24T03:22:10.253Z,84.00
2018-07-24T03:23:10.497Z,96.00
2018-07-24T03:24:10.741Z,112.00
2018-07-24T03:25:10.983Z,124.00
2018-07-24T03:26:11.224Z,136.00
2018-07-24T03:27:11.466Z,156.00
2018-07-24T03:28:11.711Z,172.00
2018-07-24T03:29:11.951Z,192.00
2018-07-24T03:30:12.192Z,212.00
2018-07-24T03:31:12.435Z,232.00
2018-07-24T03:32:12.676Z,260.00
2018-07-24T03:33:12.920Z,284.00
2018-07-24T03:34:13.163Z,308.00
2018-07-24T03:35:13.403Z,336.00
2018-07-24T03:36:13.644Z,368.00
2018-07-24T03:37:13.888Z,396.00
2018-07-24T03:38:14.129Z,432.00
2018-07-24T03:39:14.374Z,464.00
2018-07-24T03:40:14.616Z,500.00
2018-07-24T03:41:14.856Z,536.00
2018-07-24T03:42:15.098Z,576.00
2018-07-24T03:43:15.340Z,616.00
2018-07-24T03:44:15.581Z,656.00
2018-07-24T03:45:15.823Z,700.00
2018-07-24T03:46:16.068Z,744.00
2018-07-24T03:47:16.307Z,792.00
2018-07-24T03:48:16.555Z,836.00
2018-07-24T03:49:16.797Z,884.00
2018-07-24T03:50:17.039Z,932.00
2018-07-24T03:51:17.279Z,980.00
2018-07-24T03:52:17.521Z,1032.00
2018-07-24T03:53:17.763Z,1084.00
2018-07-24T03:54:18.005Z,1132.00
2018-07-24T03:55:18.240Z,1184.00
2018-07-24T03:56:18.487Z,1236.00
2018-07-24T03:57:18.730Z,1288.00
2018-07-24T03:58:18.971Z,1344.00
2018-07-24T03:59:19.213Z,1400.00
2018-07-24T04:00:19.456Z,1452.00
2018-07-24T04:01:19.697Z,1508.00
2018-07-24T04:02:19.961Z,1564.00
2018-07-24T04:03:20.181Z,1636.00
2018-07-24T04:04:20.428Z,1716.00
2018-07-24T04:05:20.671Z,1792.00
2018-07-24T04:06:20.913Z,1860.00
2018-07-24T04:07:21.153Z,1920.00
2018-07-24T04:08:21.395Z,1984.00
2018-07-24T04:09:21.636Z,2052.00
2018-07-24T04:10:21.879Z,2116.00
2018-07-24T04:11:22.119Z,2172.00
2018-07-24T04:12:22.360Z,2232.00
2018-07-24T04:13:22.600Z,2292.00
2018-07-24T04:14:22.845Z,2356.00
2018-07-24T04:15:23.085Z,2420.00
2018-07-24T04:16:23.324Z,2480.00
2018-07-24T04:17:23.569Z,2540.00
2018-07-24T04:18:23.809Z,2600.00
2018-07-24T04:19:24.049Z,2656.00
2018-07-24T04:20:24.289Z,2716.00
2018-07-24T04:21:24.532Z,2772.00
2018-07-24T04:22:24.775Z,2832.00
2018-07-24T04:23:25.018Z,2892.00
2018-07-24T04:24:25.258Z,2952.00
2018-07-24T04:25:25.504Z,3012.00
2018-07-24T04:26:25.746Z,3076.00
2018-07-24T04:27:25.988Z,3132.00
2018-07-24T04:28:26.232Z,3192.00
2018-07-24T04:29:26.472Z,3252.00
2018-07-24T04:30:26.713Z,3304.00
2018-07-24T04:31:26.953Z,3360.00
2018-07-24T04:32:27.195Z,3412.00
2018-07-24T04:33:27.436Z,3468.00
2018-07-24T04:34:27.676Z,3528.00
2018-07-24T04:35:27.923Z,3584.00
2018-07-24T04:36:28.159Z,3636.00
2018-07-24T04:37:28.403Z,3692.00
2018-07-24T04:38:28.647Z,3744.00
2018-07-24T04:39:28.890Z,3796.00
2018-07-24T04:40:29.131Z,3840.00
2018-07-24T04:41:29.373Z,3896.00
2018-07-24T04:42:29.616Z,3948.00
2018-07-24T04:43:29.857Z,4012.00
2018-07-24T04:44:30.099Z,4068.00
2018-07-24T04:45:30.340Z,4116.00
2018-07-24T04:46:30.584Z,4232.00
2018-07-24T04:47:30.830Z,4308.00
2018-07-24T04:48:31.093Z,4300.00
2018-07-24T04:49:31.306Z,4296.00
2018-07-24T04:50:31.553Z,4336.00
2018-07-24T04:51:31.799Z,4380.00
2018-07-24T04:52:32.037Z,4428.00
2018-07-24T04:53:32.280Z,4476.00
2018-07-24T04:54:32.523Z,4524.00
2018-07-24T04:55:32.767Z,4564.00
2018-07-24T04:56:33.009Z,4612.00
2018-07-24T04:57:33.252Z,4652.00
2018-07-24T04:58:33.497Z,4700.00
2018-07-24T04:59:33.741Z,4840.00
2018-07-24T05:00:33.982Z,4880.00
2018-07-24T05:01:34.225Z,4924.00
2018-07-24T05:02:34.528Z,4960.00
2018-07-24T05:03:34.710Z,5000.00
2018-07-24T05:04:34.954Z,5036.00
2018-07-24T05:05:35.196Z,5080.00
2018-07-24T05:06:35.439Z,5116.00
2018-07-24T05:07:35.683Z,5148.00
2018-07-24T05:08:35.926Z,5184.00
2018-07-24T05:09:36.213Z,5216.00
2018-07-24T05:10:36.499Z,5248.00
2018-07-24T05:11:36.670Z,5280.00
2018-07-24T05:12:36.915Z,5320.00
2018-07-24T05:13:37.160Z,5348.00
2018-07-24T05:14:37.405Z,5384.00
2018-07-24T05:15:37.646Z,5420.00
2018-07-24T05:16:37.945Z,5452.00
2018-07-24T05:17:38.132Z,5480.00
2018-07-24T05:18:38.378Z,5512.00
2018-07-24T05:19:38.619Z,5540.00
2018-07-24T05:20:38.864Z,5572.00
2018-07-24T05:21:39.108Z,5600.00
2018-07-24T05:22:39.352Z,5632.00
2018-07-24T05:23:39.658Z,5672.00
2018-07-24T05:24:39.846Z,5696.00
2018-07-24T05:25:40.084Z,5728.00
2018-07-24T05:26:40.353Z,5756.00
2018-07-24T05:27:40.575Z,5788.00
2018-07-24T05:28:40.818Z,5812.00
2018-07-24T05:29:41.064Z,5848.00
2018-07-24T05:30:41.310Z,5924.00
2018-07-24T05:31:41.711Z,5984.00
2018-07-24T05:32:41.955Z,6016.00
2018-07-24T05:33:42.241Z,6036.00
2018-07-24T05:34:42.486Z,6048.00
2018-07-24T05:35:42.739Z,6040.00
2018-07-24T05:36:42.986Z,6044.00
2018-07-24T05:37:43.229Z,6052.00
2018-07-24T05:38:43.527Z,6064.00
2018-07-24T05:39:43.717Z,6076.00
2018-07-24T05:40:43.960Z,6088.00
2018-07-24T05:41:44.203Z,6112.00
2018-07-24T05:42:44.446Z,6132.00
2018-07-24T05:43:44.689Z,6152.00
2018-07-24T05:44:44.934Z,6176.00
2018-07-24T05:45:45.178Z,6204.00
2018-07-24T05:46:45.424Z,6224.00
2018-07-24T05:47:45.668Z,6248.00
2018-07-24T05:48:45.927Z,6272.00
2018-07-24T05:49:46.158Z,6296.00
2018-07-24T05:50:46.402Z,6312.00
2018-07-24T05:51:46.647Z,6332.00
2018-07-24T05:52:46.894Z,6356.00
2018-07-24T05:53:47.135Z,6376.00
2018-07-24T05:54:47.380Z,6404.00
2018-07-24T05:55:47.634Z,6428.00
2018-07-24T05:56:47.868Z,6452.00
2018-07-24T05:57:48.112Z,6476.00
2018-07-24T05:58:48.358Z,6504.00
2018-07-24T05:59:48.605Z,6528.00
2018-07-24T06:00:48.849Z,6552.00
2018-07-24T06:01:49.100Z,6580.00
2018-07-24T06:02:49.339Z,6604.00
2018-07-24T06:03:49.584Z,6624.00
2018-07-24T06:04:49.829Z,6644.00
2018-07-24T06:05:50.074Z,6668.00
2018-07-24T06:06:50.321Z,6688.00
2018-07-24T06:07:50.564Z,6708.00
2018-07-24T06:08:50.812Z,6732.00
2018-07-24T06:09:51.054Z,6756.00
2018-07-24T06:10:51.298Z,6780.00
2018-07-24T06:11:51.543Z,6796.00
2018-07-24T06:12:51.790Z,6820.00
2018-07-24T06:13:52.036Z,6840.00
2018-07-24T06:14:52.281Z,6860.00
2018-07-24T06:15:52.527Z,6892.00
2018-07-24T06:16:52.779Z,6908.00
2018-07-24T06:17:53.021Z,6932.00
2018-07-24T06:18:53.265Z,6952.00
2018-07-24T06:19:53.517Z,6972.00
2018-07-24T06:20:53.766Z,6996.00
2018-07-24T06:21:54.046Z,7024.00
2018-07-24T06:22:54.263Z,7036.00
2018-07-24T06:23:54.509Z,7052.00
2018-07-24T06:24:54.755Z,7076.00
2018-07-24T06:25:55.002Z,7092.00
2018-07-24T06:26:55.248Z,7112.00
2018-07-24T06:27:55.553Z,7132.00
2018-07-24T06:28:55.801Z,7160.00
2018-07-24T06:29:56.049Z,7180.00
2018-07-24T06:30:56.294Z,7204.00
2018-07-24T06:31:56.539Z,7232.00
2018-07-24T06:32:56.784Z,7256.00
2018-07-24T06:33:57.030Z,7280.00
2018-07-24T06:34:57.309Z,7316.00
2018-07-24T06:35:57.520Z,7340.00
2018-07-24T06:36:57.764Z,7368.00
2018-07-24T06:37:58.011Z,7400.00
2018-07-24T06:38:58.255Z,7428.00
2018-07-24T06:39:58.501Z,7456.00
2018-07-24T06:40:58.748Z,7476.00
2018-07-24T06:41:58.995Z,7500.00
2018-07-24T06:42:59.240Z,7524.00
2018-07-24T06:43:59.488Z,7552.00
2018-07-24T06:44:59.736Z,7584.00
2018-07-24T06:46:00.098Z,7616.00
2018-07-24T06:47:00.364Z,7640.00
2018-07-24T06:48:00.611Z,7664.00
2018-07-24T06:49:00.858Z,7684.00
2018-07-24T06:50:01.106Z,7712.00
2018-07-24T06:51:01.368Z,7736.00
2018-07-24T06:52:01.737Z,7752.00
2018-07-24T06:53:01.848Z,7784.00
2018-07-24T06:54:02.097Z,7788.00
2018-07-24T06:55:02.344Z,7812.00
2018-07-24T06:56:02.647Z,7832.00
2018-07-24T06:57:02.844Z,7860.00
2018-07-24T06:58:03.091Z,7884.00
2018-07-24T06:59:03.340Z,7912.00
2018-07-24T07:00:03.593Z,7948.00
2018-07-24T07:01:03.840Z,7972.00
2018-07-24T07:02:04.137Z,8004.00
2018-07-24T07:03:04.338Z,8036.00
2018-07-24T07:04:04.591Z,8064.00
2018-07-24T07:05:04.858Z,8104.00
2018-07-24T07:06:05.087Z,8136.00
2018-07-24T07:07:05.330Z,8172.00
2018-07-24T07:08:05.577Z,8196.00
2018-07-24T07:09:05.822Z,8232.00
2018-07-24T07:10:06.073Z,8260.00
2018-07-24T07:11:06.319Z,8288.00
2018-07-24T07:12:06.564Z,8320.00
2018-07-24T07:13:06.861Z,8352.00
2018-07-24T07:14:07.065Z,9252.00
2018-07-24T07:15:07.307Z,11192.00
2018-07-24T07:16:07.564Z,13648.00
2018-07-24T07:17:07.802Z,13484.00
2018-07-24T07:18:08.049Z,12376.00
2018-07-24T07:19:08.295Z,12640.00
2018-07-24T07:20:08.543Z,12628.00
2018-07-24T07:21:08.793Z,12232.00
2018-07-24T07:22:09.039Z,12604.00
2018-07-24T07:23:09.289Z,12352.00
2018-07-24T07:24:09.534Z,12460.00
2018-07-24T07:25:09.783Z,12724.00
2018-07-24T07:26:10.096Z,12320.00
2018-07-24T07:27:10.281Z,11760.00
2018-07-24T07:28:10.532Z,11600.00
2018-07-24T07:29:10.792Z,11636.00
2018-07-24T07:30:11.028Z,12084.00
2018-07-24T07:31:11.277Z,11932.00
2018-07-24T07:32:11.561Z,11436.00
2018-07-24T07:33:11.777Z,11388.00
2018-07-24T07:34:12.028Z,11956.00
2018-07-24T07:35:12.280Z,12340.00
2018-07-24T07:36:12.530Z,11840.00
2018-07-24T07:37:12.781Z,11408.00
2018-07-24T07:38:13.031Z,11428.00
2018-07-24T07:39:13.319Z,11736.00
2018-07-24T07:40:13.533Z,11664.00
2018-07-24T07:41:13.783Z,11392.00
2018-07-24T07:42:14.035Z,11292.00
2018-07-24T07:43:14.288Z,11320.00
2018-07-24T07:44:14.544Z,11376.00
2018-07-24T07:45:14.804Z,11432.00
2018-07-24T07:46:15.044Z,11508.00
2018-07-24T07:47:15.295Z,11572.00
2018-07-24T07:48:15.549Z,11648.00
2018-07-24T07:49:15.801Z,11576.00
2018-07-24T07:50:16.055Z,11620.00
2018-07-24T07:51:16.309Z,11680.00
2018-07-24T07:52:16.562Z,11704.00
2018-07-24T07:53:16.814Z,11916.00
2018-07-24T07:54:17.066Z,12160.00
2018-07-24T07:55:17.326Z,12224.00
2018-07-24T07:56:17.576Z,12268.00
2018-07-24T07:57:17.830Z,12244.00
2018-07-24T07:58:18.082Z,12184.00
2018-07-24T07:59:18.337Z,12244.00
2018-07-24T08:00:18.594Z,12716.00
2018-07-24T08:01:18.845Z,12964.00
2018-07-24T08:02:19.099Z,12696.00
2018-07-24T08:03:19.354Z,12464.00
2018-07-24T08:04:19.649Z,12384.00
2018-07-24T08:05:19.861Z,12368.00
2018-07-24T08:06:20.116Z,12512.00
2018-07-24T08:07:20.369Z,12816.00
2018-07-24T08:08:20.622Z,12924.00
2018-07-24T08:09:20.875Z,12768.00
2018-07-24T08:10:21.129Z,13028.00
2018-07-24T08:11:21.383Z,14064.00
2018-07-24T08:12:21.671Z,14520.00
2018-07-24T08:13:21.889Z,14884.00
2018-07-24T08:14:22.142Z,15496.00
2018-07-24T08:15:22.396Z,15072.00
2018-07-24T08:16:22.659Z,15316.00
2018-07-24T08:17:22.913Z,15852.00
2018-07-24T08:18:23.172Z,15652.00
2018-07-24T08:19:23.422Z,15244.00
2018-07-24T08:20:23.678Z,15636.00
2018-07-24T08:21:23.931Z,16992.00
2018-07-24T08:22:24.212Z,17760.00
2018-07-24T08:23:24.438Z,16704.00
2018-07-24T08:24:24.693Z,15036.00
2018-07-24T08:25:24.946Z,14044.00
2018-07-24T08:26:25.196Z,14064.00
2018-07-24T08:27:25.447Z,14264.00
2018-07-24T08:28:25.699Z,14196.00
2018-07-24T08:29:25.952Z,14176.00
2018-07-24T08:30:26.207Z,15088.00
2018-07-24T08:31:26.458Z,18784.00
2018-07-24T08:32:26.706Z,21504.00
2018-07-24T08:33:27.000Z,22176.00
2018-07-24T08:34:27.211Z,23040.00
2018-07-24T08:35:27.465Z,24128.00
2018-07-24T08:36:27.716Z,24544.00
2018-07-24T08:37:27.965Z,24128.00
2018-07-24T08:38:28.218Z,24928.00
2018-07-24T08:39:28.472Z,26048.00
2018-07-24T08:40:28.724Z,28096.00
2018-07-24T08:41:28.976Z,29408.00
2018-07-24T08:42:29.229Z,29152.00
2018-07-24T08:43:29.486Z,30592.00
2018-07-24T08:44:29.738Z,32128.00
2018-07-24T08:45:29.993Z,31136.00
2018-07-24T08:46:30.246Z,31040.00
2018-07-24T08:47:30.500Z,32160.00
2018-07-24T08:48:30.753Z,33216.00
2018-07-24T08:49:31.006Z,35744.00
2018-07-24T08:50:31.259Z,35712.00
2018-07-24T08:51:31.513Z,35552.00
2018-07-24T08:52:31.869Z,35872.00
2018-07-24T08:53:32.285Z,36288.00
2018-07-24T08:54:32.426Z,35360.00
2018-07-24T08:55:32.921Z,33792.00
2018-07-24T08:56:32.785Z,33216.00
2018-07-24T08:57:33.035Z,34240.00
2018-07-24T08:58:33.289Z,35360.00
2018-07-24T08:59:33.542Z,36896.00
2018-07-24T09:00:33.805Z,37888.00
2018-07-24T09:01:34.051Z,38880.00
2018-07-24T09:02:34.307Z,37280.00
2018-07-24T09:03:34.652Z,37824.00
2018-07-24T09:04:34.815Z,40416.00
2018-07-24T09:05:35.070Z,43424.00
2018-07-24T09:06:35.325Z,43136.00
2018-07-24T09:07:35.580Z,41344.00
2018-07-24T09:08:35.833Z,41408.00
2018-07-24T09:09:36.088Z,43008.00
2018-07-24T09:10:36.346Z,45440.00
2018-07-24T09:11:36.602Z,46912.00
2018-07-24T09:12:36.858Z,49024.00
2018-07-24T09:13:37.113Z,49920.00
2018-07-24T09:14:37.371Z,47904.00
2018-07-24T09:15:37.715Z,48192.00
2018-07-24T09:16:37.869Z,48544.00
2018-07-24T09:17:38.126Z,49056.00
2018-07-24T09:18:38.383Z,48064.00
2018-07-24T09:19:38.641Z,46880.00
2018-07-24T09:20:38.917Z,49088.00
2018-07-24T09:21:39.174Z,48032.00
2018-07-24T09:22:39.432Z,48000.00
2018-07-24T09:23:39.688Z,47968.00
2018-07-24T09:24:39.944Z,47360.00
2018-07-24T09:25:40.217Z,49312.00
2018-07-24T09:26:40.489Z,48672.00
2018-07-24T09:27:40.746Z,47296.00
2018-07-24T09:28:41.004Z,49472.00
2018-07-24T09:29:41.263Z,51488.00
2018-07-24T09:30:41.519Z,55232.00
2018-07-24T09:31:41.777Z,55520.00
2018-07-24T09:32:42.035Z,53824.00
2018-07-24T09:33:42.293Z,53952.00
2018-07-24T09:34:42.552Z,55200.00
2018-07-24T09:35:42.810Z,54112.00
2018-07-24T09:36:43.070Z,55424.00
2018-07-24T09:37:43.325Z,57088.00
2018-07-24T09:38:43.583Z,56608.00
2018-07-24T09:39:43.843Z,55968.00
2018-07-24T09:40:44.102Z,56864.00
2018-07-24T09:41:44.360Z,56096.00
2018-07-24T09:42:44.619Z,55232.00
2018-07-24T09:43:44.877Z,54784.00
2018-07-24T09:44:45.134Z,56480.00
2018-07-24T09:45:45.450Z,57600.00
2018-07-24T09:46:45.653Z,57632.00
2018-07-24T09:47:45.914Z,58240.00
2018-07-24T09:48:46.173Z,58624.00
2018-07-24T09:49:46.431Z,59328.00
2018-07-24T09:50:46.691Z,60544.00
2018-07-24T09:51:46.950Z,60672.00
2018-07-24T09:52:47.213Z,60512.00
2018-07-24T09:53:47.473Z,61920.00
2018-07-24T09:54:47.729Z,60448.00
2018-07-24T09:55:47.987Z,61888.00
2018-07-24T09:56:48.245Z,64096.00
2018-07-24T09:57:48.506Z,65312.00
2018-07-24T09:58:48.766Z,65280.00
2018-07-24T09:59:49.025Z,66144.00
2018-07-24T10:00:49.284Z,64160.00
2018-07-24T10:01:49.543Z,61088.00
2018-07-24T10:02:49.803Z,61216.00
2018-07-24T10:03:50.060Z,62688.00
2018-07-24T10:04:50.319Z,62976.00
2018-07-24T10:05:50.579Z,63072.00
2018-07-24T10:06:50.841Z,63328.00
2018-07-24T10:07:51.098Z,68320.00
2018-07-24T10:08:51.359Z,70432.00
2018-07-24T10:09:51.620Z,69056.00
2018-07-24T10:10:51.896Z,69728.00
2018-07-24T10:11:52.139Z,72096.00
2018-07-24T10:12:52.428Z,73248.00
2018-07-24T10:13:52.659Z,73696.00
2018-07-24T10:14:52.915Z,71328.00
2018-07-24T10:15:53.176Z,69568.00
2018-07-24T10:16:53.472Z,71744.00
2018-07-24T10:17:53.701Z,70336.00
2018-07-24T10:18:53.980Z,69760.00
2018-07-24T10:19:54.221Z,72320.00
2018-07-24T10:20:54.482Z,73248.00
2018-07-24T10:21:54.742Z,70784.00
2018-07-24T10:22:55.006Z,71616.00
2018-07-24T10:23:55.264Z,73952.00
2018-07-24T10:24:55.524Z,72992.00
2018-07-24T10:25:55.787Z,73792.00
2018-07-24T10:26:56.051Z,76000.00
2018-07-24T10:27:56.310Z,80096.00
2018-07-24T10:28:56.570Z,79936.00
2018-07-24T10:29:56.836Z,79200.00
2018-07-24T10:30:57.097Z,80640.00
2018-07-24T10:31:57.356Z,81248.00
2018-07-24T10:32:57.619Z,79456.00
2018-07-24T10:33:57.881Z,77792.00
2018-07-24T10:34:58.164Z,80736.00
2018-07-24T10:35:58.432Z,84160.00
2018-07-24T10:36:58.700Z,84064.00
2018-07-24T10:37:58.952Z,81056.00
2018-07-24T10:38:59.213Z,76864.00
2018-07-24T10:39:59.475Z,78496.00
2018-07-24T10:40:59.738Z,77280.00
2018-07-24T10:41:59.995Z,83680.00
2018-07-24T10:43:00.318Z,83136.00
2018-07-24T10:44:00.521Z,84480.00
2018-07-24T10:45:00.785Z,84224.00
2018-07-24T10:46:01.042Z,75104.00
2018-07-24T10:47:01.304Z,78880.00
2018-07-24T10:48:01.564Z,80352.00
2018-07-24T10:49:01.825Z,74656.00
2018-07-24T10:50:02.086Z,76448.00
2018-07-24T10:51:02.345Z,79072.00
2018-07-24T10:52:02.640Z,76192.00
2018-07-24T10:53:02.868Z,90560.00
2018-07-24T10:54:03.132Z,84448.00
2018-07-24T10:55:03.390Z,80832.00
2018-07-24T10:56:03.653Z,80096.00
2018-07-24T10:57:03.914Z,79392.00
2018-07-24T10:58:04.174Z,79232.00
2018-07-24T10:59:04.435Z,79648.00
2018-07-24T11:00:04.699Z,76288.00
2018-07-24T11:01:04.960Z,75840.00
2018-07-24T11:02:05.226Z,76256.00
2018-07-24T11:03:05.486Z,78272.00
2018-07-24T11:04:05.754Z,81792.00
2018-07-24T11:05:06.011Z,83584.00
2018-07-24T11:06:06.270Z,82304.00
2018-07-24T11:07:06.537Z,81504.00
2018-07-24T11:08:06.798Z,80544.00
2018-07-24T11:09:07.060Z,78880.00
2018-07-24T11:10:07.329Z,77920.00
2018-07-24T11:11:07.580Z,80960.00
2018-07-24T11:12:07.839Z,81248.00
2018-07-24T11:13:08.099Z,80256.00
2018-07-24T11:14:08.359Z,80128.00
2018-07-24T11:15:08.617Z,83744.00
2018-07-24T11:16:08.878Z,86272.00
2018-07-24T11:17:09.139Z,87520.00
2018-07-24T11:18:09.397Z,82240.00
2018-07-24T11:19:09.657Z,80384.00
2018-07-24T11:20:09.916Z,81696.00
2018-07-24T11:21:10.176Z,80352.00
2018-07-24T11:22:10.559Z,75552.00
2018-07-24T11:23:10.816Z,74720.00
2018-07-24T11:24:10.956Z,80704.00
2018-07-24T11:25:11.218Z,79776.00
2018-07-24T11:26:11.479Z,79456.00
2018-07-24T11:27:11.741Z,76288.00
2018-07-24T11:28:12.002Z,80608.00
2018-07-24T11:29:12.260Z,81696.00
2018-07-24T11:30:12.521Z,79136.00
2018-07-24T11:31:12.787Z,75744.00
2018-07-24T11:32:13.044Z,79744.00
2018-07-24T11:33:13.329Z,86944.00
2018-07-24T11:34:13.583Z,88096.00
2018-07-24T11:35:13.822Z,86080.00
2018-07-24T11:36:14.133Z,86048.00
2018-07-24T11:37:14.341Z,85280.00
2018-07-24T11:38:14.598Z,80736.00
2018-07-24T11:39:14.857Z,80512.00
2018-07-24T11:40:15.116Z,80256.00
2018-07-24T11:41:15.372Z,80480.00
2018-07-24T11:42:15.629Z,76864.00
2018-07-24T11:43:15.886Z,76672.00
2018-07-24T11:44:16.143Z,84864.00
2018-07-24T11:45:16.400Z,90848.00
2018-07-24T11:46:16.656Z,86016.00
2018-07-24T11:47:16.915Z,76384.00
2018-07-24T11:48:17.173Z,76640.00
2018-07-24T11:49:17.429Z,85984.00
2018-07-24T11:50:17.691Z,92576.00
2018-07-24T11:51:17.951Z,87008.00
2018-07-24T11:52:18.210Z,82848.00
2018-07-24T11:53:18.465Z,87456.00
2018-07-24T11:54:18.727Z,89088.00
2018-07-24T11:55:18.997Z,90144.00
2018-07-24T11:56:19.245Z,88032.00
2018-07-24T11:57:19.502Z,86560.00
2018-07-24T11:58:19.773Z,92960.00
2018-07-24T11:59:20.016Z,93600.00
2018-07-24T12:00:20.272Z,89792.00
2018-07-24T12:01:20.531Z,85216.00
2018-07-24T12:02:20.796Z,91584.00
2018-07-24T12:03:21.052Z,88704.00
2018-07-24T12:04:21.308Z,83296.00
2018-07-24T12:05:21.567Z,84736.00
2018-07-24T12:06:21.825Z,85088.00
2018-07-24T12:07:22.082Z,87808.00
2018-07-24T12:08:22.341Z,89760.00
2018-07-24T12:09:22.601Z,88992.00
2018-07-24T12:10:22.856Z,80576.00
2018-07-24T12:11:23.115Z,78720.00
2018-07-24T12:12:23.373Z,82720.00
2018-07-24T12:13:23.629Z,85888.00
2018-07-24T12:14:23.888Z,84512.00
2018-07-24T12:15:24.145Z,87520.00
2018-07-24T12:16:24.403Z,91200.00
2018-07-24T12:17:24.660Z,87104.00
2018-07-24T12:18:24.921Z,82912.00
2018-07-24T12:19:25.235Z,87040.00
2018-07-24T12:20:25.437Z,90368.00